Picton, Canada
Current Conditions -  °F | °C
As of 7:00 PM on Monday 20 Oct 2014 (Local Time) from CYTR Reporting Station
Rain Showers Rain Showers  
Wind Chill: 10°   Ceiling: 2200
Heat Index: 10°   Visibility: 7mi
Dew Point:   Wind: 2mph
Humidity: 94%   Direction: 160°SSE
Pressure: 29.83"   Gusts: NA
Location:  44.01°N, 77.14°W
Report Text: CYTR 202300Z 16002KT 7SM -SHRA OVC022 10/09 A2983 RMK SC8 SLP103
Loading
Personal Weather Stations






























Interactive Weather Map
Tropical Storm Tracking
New forecast layout! Learn more

10-Day Weather Forecast

Advertisements
Track Severe Weather on mobile